Etusivu
METAR-TAF:

METAR-TAF

Lentoasemat :

Cleveland, Mississippi, Yhdysvallat

Leveyspiiri: 33-45-40N, Pituuspiiri: 090-45-28W, korkeus merenpinnasta: 42 m

Tämänhetkinen sää

Tämä raportti tehtiin 18 minuuttia sitten, kello 23.15 UTC
Tuuli 8 kn etelästä/lounaasta
Lämpötila 10°C
Kosteus 100%
Ilmanpaine 1010 hPa
Näkyvyys: 4.8 km
Hajanaisia pilviä 800 ft:n korkeudessa
Hajanaisia pilviä 1200 ft:n korkeudessa
Pilvistä 1900 ft:n korkeudessa
heikkoa sadetta

METAR: KRNV 142315Z AUTO 21008KT 3SM -RA SCT008 SCT012 OVC019 10/10 A2982 RMK AO2 T00960096

Aika: 17:33 (23:33 UTC)


TAF: puuttuu

Säähavainnot ja -ennusteet yli 4000 lentoasemalta (METAR- ja TAF-raportit).

Käytössä olevat sääasemat on merkitty karttaan keltaisilla ja punaisilla pisteillä.

Aseta hiiri pisteen päälle nähdäksesi sääaseman nimen.

Klikkaa sitten nähdäksesi säähavainnot ja -ennusteet.

Kartan vaihtaminen: klikkaa mustalla rastilla varustettuja vihreitä pisteitä, niin voit zoomata sisään; viivalla varustettua vihreää pistettä, niin voit zoomata ulos tai vihreitä nuolia, niin pääset viereisille kartoille.


METAR-TAF: